Time;durP1;ratioP1;P1;durP2;ratioP2;P2;SDS_P1;SDS_P2;PMS_P1;PMS_P2;Temp;Humidity;BMP_temperature;BMP_pressure;BME280_temperature;BME280_humidity;BME280_pressure;Samples;Min_cycle;Max_cycle;Signal;HPM_P1;HPM_P2
2023/03/01 00:01:58;;;;;;;15.50;4.87;;;;;;;9.60;80.19;99773.13;6131002;23;20580;-90
2023/03/01 00:04:24;;;;;;;10.43;3.87;;;;;;;9.65;80.37;99765.97;6157000;23;20211;-90
2023/03/01 00:06:49;;;;;;;7.77;3.10;;;;;;;9.58;81.05;99764.50;6156889;23;20481;-90
2023/03/01 00:09:15;;;;;;;7.57;3.13;;;;;;;9.57;80.68;99762.78;6157428;23;20562;-89
2023/03/01 00:11:41;;;;;;;5.50;3.03;;;;;;;9.64;80.35;99762.47;6157391;23;20157;-90
2023/03/01 00:14:06;;;;;;;6.70;3.10;;;;;;;9.68;80.18;99761.47;6156781;23;20168;-91
2023/03/01 00:16:40;;;;;;;17.03;4.70;;;;;;;9.51;80.89;99760.44;6131740;23;20165;-90
2023/03/01 00:19:17;;;;;;;12.30;4.53;;;;;;;9.63;80.57;99770.41;6157190;23;20617;-90
2023/03/01 00:21:43;;;;;;;7.87;2.93;;;;;;;9.57;80.37;99762.78;6157197;23;20174;-91
2023/03/01 00:24:11;;;;;;;5.40;2.93;;;;;;;9.67;80.21;99762.38;6156738;23;20174;-91
2023/03/01 00:26:37;;;;;;;5.07;2.70;;;;;;;9.63;80.27;99752.09;6131107;23;20227;-90
2023/03/01 00:29:03;;;;;;;9.97;4.20;;;;;;;9.55;80.39;99759.38;6131072;23;20593;-90
2023/03/01 00:31:31;;;;;;;10.23;4.20;;;;;;;9.63;80.65;99757.31;6156715;23;20228;-90
2023/03/01 00:33:59;;;;;;;14.70;4.27;;;;;;;9.58;80.13;99759.25;6157342;23;20152;-90
2023/03/01 00:36:27;;;;;;;10.60;4.23;;;;;;;9.61;80.28;99756.53;6130936;23;20159;-90
2023/03/01 00:38:53;;;;;;;10.30;4.30;;;;;;;9.72;80.68;99762.22;6157024;23;20507;-90
2023/03/01 00:41:22;;;;;;;9.83;4.63;;;;;;;9.78;79.48;99756.72;6156787;23;20161;-90
2023/03/01 00:43:49;;;;;;;12.57;4.37;;;;;;;9.58;79.36;99759.25;6130772;23;20531;-90
2023/03/01 00:46:17;;;;;;;9.90;4.10;;;;;;;9.50;81.14;99758.72;6156467;23;20600;-90
2023/03/01 00:48:42;;;;;;;12.30;4.27;;;;;;;9.45;81.18;99752.78;6156605;23;20153;-90
2023/03/01 00:51:14;;;;;;;9.70;4.10;;;;;;;9.52;81.31;99754.25;6156583;23;20218;-90
2023/03/01 00:53:41;;;;;;;14.00;4.97;;;;;;;9.59;80.82;99748.72;6157308;23;20136;-90
2023/03/01 00:56:08;;;;;;;13.53;5.03;;;;;;;9.62;79.94;99745.13;6130816;23;20170;-91
2023/03/01 00:58:34;;;;;;;14.73;4.53;;;;;;;9.67;79.91;99743.22;6130738;23;20182;-91
2023/03/01 01:00:59;;;;;;;18.83;5.13;;;;;;;9.60;80.14;99739.97;6130926;23;20173;-91
2023/03/01 01:03:25;;;;;;;23.43;8.67;;;;;;;9.32;81.15;99730.63;6131310;23;20537;-90
2023/03/01 01:05:53;;;;;;;24.47;5.70;;;;;;;9.25;81.46;99727.38;6130709;23;20633;-91
2023/03/01 01:08:21;;;;;;;26.97;7.67;;;;;;;9.40;81.17;99725.97;6130703;23;20188;-91
2023/03/01 01:10:47;;;;;;;37.13;9.70;;;;;;;9.49;81.14;99721.22;6130806;23;20159;-91
2023/03/01 01:13:13;;;;;;;44.97;11.50;;;;;;;9.55;80.98;99725.34;6131114;23;20632;-91
2023/03/01 01:15:39;;;;;;;39.60;9.90;;;;;;;9.63;80.36;99726.78;6130806;23;20165;-91
2023/03/01 01:18:04;;;;;;;46.37;11.30;;;;;;;9.75;80.30;99722.78;6156483;23;20678;-91
2023/03/01 01:20:30;;;;;;;53.17;13.43;;;;;;;9.76;80.20;99721.91;6130610;23;20496;-91
2023/03/01 01:22:56;;;;;;;50.20;14.37;;;;;;;9.81;80.21;99717.31;6130654;23;20153;-91
2023/03/01 01:25:21;;;;;;;53.93;14.87;;;;;;;9.72;79.63;99712.47;6130562;23;20192;-91
2023/03/01 01:27:47;;;;;;;50.43;14.53;;;;;;;9.70;79.71;99720.38;6156840;23;20186;-91
2023/03/01 01:30:13;;;;;;;79.40;19.83;;;;;;;9.67;79.67;99715.25;6156700;23;20487;-92
2023/03/01 01:32:41;;;;;;;55.87;16.50;;;;;;;9.34;80.93;99715.72;6130511;23;20191;-92
2023/03/01 01:35:07;;;;;;;71.40;18.53;;;;;;;9.34;81.08;99716.56;6130802;23;20151;-91
2023/03/01 01:37:32;;;;;;;76.03;18.97;;;;;;;9.30;81.35;99708.91;6130545;23;20158;-91
2023/03/01 01:39:59;;;;;;;67.13;18.33;;;;;;;9.37;81.38;99708.63;6130414;23;20159;-90
2023/03/01 01:42:24;;;;;;;50.47;16.40;;;;;;;9.43;80.99;99718.00;6156152;23;20152;-91
2023/03/01 01:45:36;;;;;;;52.50;16.10;;;;;;;9.44;81.04;99720.53;6156375;23;20342;-91
2023/03/01 01:48:10;;;;;;;42.83;15.63;;;;;;;9.48;80.86;99729.13;6124891;23;20165;-91
2023/03/01 01:50:39;;;;;;;54.63;18.60;;;;;;;9.48;80.79;99729.13;6130417;23;20149;-91
2023/03/01 01:53:09;;;;;;;51.40;18.50;;;;;;;9.31;81.10;99721.91;6130835;23;20158;-90
2023/03/01 01:55:38;;;;;;;48.10;16.10;;;;;;;9.43;81.02;99725.84;6156053;23;20148;-91
2023/03/01 01:58:07;;;;;;;36.73;14.77;;;;;;;9.51;80.37;99719.38;6156284;23;20617;-91
2023/03/01 02:00:33;;;;;;;35.00;13.83;;;;;;;9.55;80.42;99720.97;6130364;23;20168;-91
2023/03/01 02:03:11;;;;;;;32.67;14.03;;;;;;;9.41;80.52;99719.81;6130738;23;20233;-90
2023/03/01 02:05:45;;;;;;;33.10;13.60;;;;;;;9.38;81.28;99718.16;6156861;23;20195;-90
2023/03/01 02:08:13;;;;;;;33.83;13.03;;;;;;;9.50;80.85;99722.94;6130581;23;20153;-90
2023/03/01 02:10:40;;;;;;;33.67;13.03;;;;;;;9.56;80.21;99714.00;6156529;23;20164;-90
2023/03/01 02:13:06;;;;;;;30.00;12.40;;;;;;;9.60;80.00;99713.81;6155844;23;20627;-90
2023/03/01 02:15:34;;;;;;;35.30;14.77;;;;;;;9.68;79.77;99709.13;6130119;23;20474;-91
2023/03/01 02:18:01;;;;;;;34.63;13.73;;;;;;;9.68;79.48;99710.88;6156197;23;20600;-91
2023/03/01 02:21:05;;;;;;;33.67;14.00;;;;;;;9.73;79.46;99714.16;6156076;23;20151;-90
2023/03/01 02:23:31;;;;;;;31.43;13.90;;;;;;;9.71;79.50;99710.75;6130159;23;20147;-91
2023/03/01 02:26:49;;;;;;;43.13;16.27;;;;;;;9.69;79.28;99717.81;6129826;23;20261;-91
2023/03/01 02:29:15;;;;;;;44.90;16.73;;;;;;;9.63;79.59;99710.22;6122919;23;20502;-91
2023/03/01 02:31:43;;;;;;;74.13;22.17;;;;;;;9.66;79.67;99708.34;6155745;23;20160;-91
2023/03/01 02:34:13;;;;;;;50.37;18.77;;;;;;;9.50;80.00;99702.00;6130076;23;20576;-90
2023/03/01 02:36:43;;;;;;;51.50;19.63;;;;;;;9.48;80.61;99705.59;6130085;23;20164;-91
2023/03/01 02:39:16;;;;;;;72.27;22.53;;;;;;;9.55;80.16;99705.28;6155701;23;20553;-91
2023/03/01 02:41:46;;;;;;;68.90;21.20;;;;;;;9.15;81.11;99699.88;6130265;23;20147;-90
2023/03/01 02:44:12;;;;;;;102.20;24.83;;;;;;;9.15;82.20;99694.63;6155563;23;20190;-91
2023/03/01 02:46:50;;;;;;;67.40;19.53;;;;;;;9.24;81.48;99691.69;6155773;23;20543;-92
2023/03/01 02:49:25;;;;;;;99.53;25.00;;;;;;;9.07;82.67;99692.31;6156077;23;20226;-91
2023/03/01 02:52:28;;;;;;;114.47;26.23;;;;;;;9.24;81.79;99695.16;6156287;23;20539;-91
2023/03/01 02:54:59;;;;;;;92.77;24.00;;;;;;;9.28;82.46;99696.72;6156223;23;20207;-92
2023/03/01 02:57:27;;;;;;;96.40;23.37;;;;;;;9.40;81.33;99699.78;6131101;23;20153;-92
2023/03/01 03:00:19;;;;;;;71.93;19.07;;;;;;;9.44;81.13;99694.38;6129920;23;20405;-92
2023/03/01 03:02:49;;;;;;;86.93;21.10;;;;;;;9.40;81.57;99692.81;6130777;23;20490;-92
2023/03/01 03:05:18;;;;;;;96.50;22.60;;;;;;;9.60;80.83;99697.25;6155595;23;20175;-91
2023/03/01 03:07:46;;;;;;;73.40;19.93;;;;;;;9.68;81.09;99692.56;6129905;23;20161;-91
2023/03/01 03:10:15;;;;;;;50.87;13.83;;;;;;;9.58;80.57;99693.84;6156577;23;20157;-92
2023/03/01 03:12:41;;;;;;;34.90;12.23;;;;;;;9.55;81.25;99699.19;6129922;23;20151;-91
2023/03/01 03:15:09;;;;;;;46.57;12.37;;;;;;;9.58;80.89;99694.69;6130111;23;20522;-91
2023/03/01 03:17:40;;;;;;;49.83;14.03;;;;;;;9.63;80.71;99689.28;6155567;23;20154;-92
2023/03/01 03:20:11;;;;;;;47.40;14.60;;;;;;;9.46;81.31;99692.53;6129907;23;20632;-91
2023/03/01 03:22:40;;;;;;;63.13;16.73;;;;;;;9.33;81.95;99687.88;6129934;23;20211;-91
2023/03/01 03:25:11;;;;;;;43.37;11.83;;;;;;;9.45;81.39;99682.16;6129758;23;20256;-90
2023/03/01 03:27:42;;;;;;;48.10;14.07;;;;;;;9.34;82.05;99679.09;6155885;23;20210;-90
2023/03/01 03:30:09;;;;;;;87.33;19.53;;;;;;;9.37;81.42;99671.13;6130004;23;20159;-91
2023/03/01 03:32:52;;;;;;;81.77;22.80;;;;;;;9.34;81.88;99666.88;6155420;23;20158;-91
2023/03/01 03:35:30;;;;;;;66.37;19.43;;;;;;;9.34;82.26;99672.09;6155404;23;20135;-90
2023/03/01 03:38:02;;;;;;;54.23;15.93;;;;;;;9.43;81.77;99669.13;6155920;23;20221;-90
2023/03/01 03:40:29;;;;;;;53.03;14.07;;;;;;;9.50;81.50;99680.19;6155771;23;20212;-91
2023/03/01 03:42:54;;;;;;;36.30;11.47;;;;;;;9.63;80.82;99681.41;6156342;23;20220;-91
2023/03/01 03:45:39;;;;;;;43.73;12.50;;;;;;;9.71;80.37;99674.09;6131551;23;20584;-91
2023/03/01 03:48:07;;;;;;;42.97;13.83;;;;;;;9.60;80.82;99671.06;6157158;23;20229;-92
2023/03/01 03:50:33;;;;;;;39.13;13.40;;;;;;;9.56;80.38;99670.34;6157245;23;20214;-91
2023/03/01 03:53:01;;;;;;;45.27;14.93;;;;;;;9.43;81.23;99673.50;6158163;23;20553;-90
2023/03/01 03:55:30;;;;;;;56.13;17.93;;;;;;;9.39;81.76;99667.53;6131371;23;20158;-90
2023/03/01 03:58:16;;;;;;;41.50;13.67;;;;;;;9.34;82.00;99666.00;6131108;23;20158;-90
2023/03/01 04:00:43;;;;;;;42.50;14.57;;;;;;;9.22;82.92;99664.75;6157151;23;20141;-90
2023/03/01 04:03:11;;;;;;;33.57;9.97;;;;;;;9.38;82.18;99659.75;6156971;23;20151;-90
2023/03/01 04:05:38;;;;;;;28.13;9.40;;;;;;;9.32;82.27;99660.00;6157500;23;20218;-91
2023/03/01 04:08:06;;;;;;;33.33;10.63;;;;;;;9.42;82.32;99658.72;6156957;23;20166;-90
2023/03/01 04:10:41;;;;;;;31.63;9.30;;;;;;;9.35;81.71;99658.13;6157079;23;20229;-92
2023/03/01 04:13:09;;;;;;;39.40;11.40;;;;;;;9.47;81.72;99664.63;6157669;23;20146;-91
2023/03/01 04:15:35;;;;;;;41.67;11.90;;;;;;;9.47;81.59;99654.16;6156920;23;20560;-91
2023/03/01 04:18:00;;;;;;;34.70;12.40;;;;;;;9.54;81.10;99663.47;6131293;23;20162;-91
2023/03/01 04:20:29;;;;;;;40.10;12.87;;;;;;;9.67;80.91;99659.47;6131580;23;20165;-91
2023/03/01 04:23:10;;;;;;;33.97;11.03;;;;;;;9.64;80.25;99654.34;6131171;23;20158;-91
2023/03/01 04:25:57;;;;;;;30.27;9.63;;;;;;;9.57;81.08;99661.56;6157510;23;20233;-91
2023/03/01 04:28:34;;;;;;;17.47;6.87;;;;;;;9.63;80.75;99670.94;6156779;23;20161;-91
2023/03/01 04:31:12;;;;;;;33.83;9.97;;;;;;;9.64;80.34;99672.66;6157522;23;20139;-90
2023/03/01 04:33:40;;;;;;;35.33;10.17;;;;;;;9.62;80.54;99677.94;6131186;23;20234;-91
2023/03/01 04:36:08;;;;;;;40.80;12.03;;;;;;;9.49;80.85;99676.72;6131170;23;20159;-91
2023/03/01 04:38:36;;;;;;;47.03;12.03;;;;;;;9.51;80.79;99676.69;6156966;23;20161;-90
2023/03/01 04:41:03;;;;;;;40.70;12.47;;;;;;;9.35;81.80;99665.97;6156810;23;20156;-90
2023/03/01 04:43:29;;;;;;;29.43;10.37;;;;;;;9.26;81.74;99669.78;6130981;23;20157;-91
2023/03/01 04:45:54;;;;;;;39.43;13.07;;;;;;;9.21;82.29;99676.97;6131270;23;20210;-91
2023/03/01 04:48:19;;;;;;;53.10;13.43;;;;;;;9.41;82.02;99675.34;6156644;23;20240;-90
2023/03/01 04:50:45;;;;;;;33.03;10.93;;;;;;;9.48;81.10;99682.88;6156664;23;20160;-91
2023/03/01 04:53:10;;;;;;;44.43;12.40;;;;;;;9.42;81.50;99684.88;6130804;23;20163;-90
2023/03/01 04:55:36;;;;;;;30.33;9.87;;;;;;;9.51;81.36;99684.53;6156588;23;20636;-90
2023/03/01 04:58:01;;;;;;;32.30;10.73;;;;;;;9.56;81.03;99683.44;6130835;23;20246;-90
2023/03/01 05:00:27;;;;;;;41.57;10.67;;;;;;;9.54;80.76;99685.25;6130971;23;20225;-90
2023/03/01 05:02:55;;;;;;;38.30;9.60;;;;;;;9.59;81.31;99678.06;6130830;23;20161;-90
2023/03/01 05:05:25;;;;;;;33.07;8.43;;;;;;;9.58;80.22;99683.38;6156428;23;20598;-91
2023/03/01 05:07:55;;;;;;;33.80;9.27;;;;;;;9.54;80.76;99682.63;6156524;23;20428;-90
2023/03/01 05:10:21;;;;;;;45.07;8.47;;;;;;;9.49;80.56;99684.56;6129946;23;20514;-90
2023/03/01 05:12:53;;;;;;;39.83;11.07;;;;;;;9.35;80.88;99684.28;6154510;23;20232;-92
2023/03/01 05:15:21;;;;;;;27.13;9.57;;;;;;;9.39;80.78;99687.63;6129077;23;20224;-91
2023/03/01 05:17:47;;;;;;;41.43;12.13;;;;;;;9.40;80.88;99681.47;6129062;23;20172;-92
2023/03/01 05:20:13;;;;;;;35.60;10.23;;;;;;;9.30;82.33;99688.84;6129405;23;20153;-90
2023/03/01 05:22:38;;;;;;;34.27;8.73;;;;;;;9.47;81.06;99681.19;6130207;23;20151;-90
2023/03/01 05:25:05;;;;;;;48.70;13.47;;;;;;;9.43;81.66;99683.97;6155960;23;20196;-91
2023/03/01 05:27:31;;;;;;;50.63;13.90;;;;;;;9.43;81.25;99681.38;6156927;23;20234;-91
2023/03/01 05:29:56;;;;;;;51.67;12.83;;;;;;;9.47;81.14;99681.19;6130590;23;20582;-91
2023/03/01 05:32:23;;;;;;;46.47;11.23;;;;;;;9.38;80.98;99681.53;6131023;23;20203;-91
2023/03/01 05:34:48;;;;;;;46.93;10.70;;;;;;;9.24;82.25;99679.47;6156728;23;20605;-91
2023/03/01 05:37:14;;;;;;;37.37;11.40;;;;;;;9.32;81.96;99691.38;6130692;23;20163;-91
2023/03/01 05:39:41;;;;;;;54.03;12.97;;;;;;;9.36;82.02;99683.34;6130453;23;20159;-91
2023/03/01 05:42:10;;;;;;;49.93;10.00;;;;;;;9.54;81.18;99687.88;6130385;23;20151;-91
2023/03/01 05:44:38;;;;;;;35.33;10.70;;;;;;;9.54;80.43;99692.28;6155916;23;20204;-91
2023/03/01 05:47:04;;;;;;;53.00;12.43;;;;;;;9.37;81.59;99692.06;6156141;23;20230;-91
2023/03/01 05:49:29;;;;;;;43.93;12.47;;;;;;;9.48;81.98;99695.13;6130439;23;20553;-91
2023/03/01 05:51:58;;;;;;;58.50;15.27;;;;;;;9.35;81.73;99696.50;6156567;23;20221;-92
2023/03/01 05:54:24;;;;;;;40.37;12.30;;;;;;;9.28;81.67;99691.50;6130491;23;20227;-91
2023/03/01 05:56:57;;;;;;;42.73;13.37;;;;;;;9.42;81.28;99692.72;6156050;23;20152;-92
2023/03/01 05:59:22;;;;;;;62.17;16.40;;;;;;;9.37;81.92;99699.91;6156527;23;20135;-91
2023/03/01 06:02:07;;;;;;;;;;;;;;;;;;;;;
2023/03/01 06:04:32;;;;;;;55.63;17.40;;;;;;;9.13;82.84;99701.69;6156875;23;20249;-91
2023/03/01 06:07:00;;;;;;;61.43;17.80;;;;;;;9.28;82.59;99694.13;6156517;23;20188;-91
2023/03/01 06:09:31;;;;;;;69.07;19.50;;;;;;;9.10;83.17;99694.81;6130770;23;20161;-91
2023/03/01 06:11:56;;;;;;;55.73;16.57;;;;;;;9.14;83.15;99698.19;6130264;23;20142;-91
2023/03/01 06:14:21;;;;;;;51.07;17.57;;;;;;;9.22;83.16;99711.81;6156974;23;20143;-91
2023/03/01 06:16:47;;;;;;;52.83;15.30;;;;;;;9.30;82.62;99701.06;6130213;23;20159;-91
2023/03/01 06:19:12;;;;;;;51.60;18.67;;;;;;;9.40;82.62;99705.03;6130261;23;20219;-91
2023/03/01 06:21:51;;;;;;;;;;;;;;;;;;;;;
2023/03/01 06:24:43;;;;;;;81.27;22.37;;;;;;;9.13;83.67;99707.78;6156947;23;20244;-93
2023/03/01 06:27:08;;;;;;;63.40;21.90;;;;;;;9.10;83.87;99714.88;6130000;23;20552;-91
2023/03/01 06:29:34;;;;;;;62.73;19.27;;;;;;;9.14;83.21;99709.50;6156334;23;20147;-91
2023/03/01 06:31:59;;;;;;;67.77;17.00;;;;;;;9.24;83.43;99710.00;6156562;23;20161;-90
2023/03/01 06:34:25;;;;;;;68.20;17.10;;;;;;;9.10;83.77;99726.19;6130233;23;20590;-91
2023/03/01 06:36:51;;;;;;;72.90;21.80;;;;;;;9.26;83.24;99714.25;6155891;23;20492;-91
2023/03/01 06:39:17;;;;;;;72.53;21.40;;;;;;;9.28;83.01;99715.03;6155705;23;20177;-91
2023/03/01 06:41:43;;;;;;;60.97;17.03;;;;;;;9.45;82.59;99710.94;6130332;23;20164;-91
2023/03/01 06:44:12;;;;;;;61.90;19.10;;;;;;;9.39;82.48;99708.53;6129646;23;20166;-93
2023/03/01 06:46:39;;;;;;;86.43;20.43;;;;;;;9.42;82.08;99709.28;6156433;23;20145;-90
2023/03/01 06:49:17;;;;;;;70.17;21.57;;;;;;;9.39;82.28;99703.31;6155621;23;20179;-92
2023/03/01 06:51:44;;;;;;;57.03;16.53;;;;;;;9.26;83.37;99711.63;6156166;23;20135;-90
2023/03/01 06:54:10;;;;;;;73.70;19.90;;;;;;;9.19;83.93;99704.94;6155693;23;20164;-91
2023/03/01 06:56:35;;;;;;;73.43;19.00;;;;;;;9.30;83.09;99708.91;6130326;23;20633;-90
2023/03/01 06:59:02;;;;;;;67.80;17.27;;;;;;;9.38;82.80;99717.31;6129798;23;20188;-90
2023/03/01 07:01:28;;;;;;;52.07;16.00;;;;;;;9.26;83.79;99711.63;6155945;23;20148;-90
2023/03/01 07:03:54;;;;;;;40.80;13.87;;;;;;;9.40;82.42;99713.72;6155536;23;20206;-91
2023/03/01 07:06:19;;;;;;;46.77;13.07;;;;;;;9.51;82.25;99718.56;6155583;23;20575;-90
2023/03/01 07:08:45;;;;;;;35.60;10.90;;;;;;;9.39;82.54;99716.41;6155882;23;20160;-90
2023/03/01 07:11:10;;;;;;;29.97;9.80;;;;;;;9.42;82.84;99714.53;6129920;23;20176;-90
2023/03/01 07:13:36;;;;;;;48.83;12.40;;;;;;;9.46;82.29;99717.88;6155966;23;20226;-90
2023/03/01 07:16:01;;;;;;;50.53;13.60;;;;;;;9.49;82.60;99715.13;6155417;23;20588;-90
2023/03/01 07:18:27;;;;;;;43.00;13.23;;;;;;;9.37;82.61;99715.59;6157085;23;20221;-90
2023/03/01 07:20:52;;;;;;;46.50;14.43;;;;;;;9.46;82.23;99718.72;6131900;23;20172;-90
2023/03/01 07:23:18;;;;;;;49.53;14.53;;;;;;;9.56;81.94;99716.59;6157778;23;20237;-90
2023/03/01 07:25:44;;;;;;;45.40;14.40;;;;;;;9.43;82.21;99713.63;6158072;23;20172;-90
2023/03/01 07:28:09;;;;;;;59.53;16.40;;;;;;;9.54;82.24;99719.25;6157425;23;20177;-90
2023/03/01 07:30:40;;;;;;;59.67;15.77;;;;;;;9.24;81.95;99715.22;6131680;23;20157;-92
2023/03/01 07:33:05;;;;;;;68.57;19.53;;;;;;;9.41;83.05;99711.97;6158021;23;20151;-89
2023/03/01 07:35:33;;;;;;;48.87;15.53;;;;;;;9.57;82.29;99703.44;6157835;23;20581;-90
2023/03/01 07:37:58;;;;;;;51.90;12.57;;;;;;;9.66;82.28;99702.25;6157901;23;20470;-89
2023/03/01 07:40:24;;;;;;;46.37;11.93;;;;;;;9.56;81.94;99712.22;6131717;23;20215;-89
2023/03/01 07:42:54;;;;;;;37.60;10.67;;;;;;;9.48;82.51;99700.34;6157823;23;20192;-89
2023/03/01 07:45:19;;;;;;;48.93;13.17;;;;;;;9.53;82.36;99695.78;6157577;23;20237;-90
2023/03/01 07:47:45;;;;;;;56.37;15.90;;;;;;;9.57;82.29;99697.34;6157469;23;20572;-89
2023/03/01 07:50:11;;;;;;;47.37;12.60;;;;;;;9.51;83.00;99702.84;6131655;23;20478;-89
2023/03/01 07:52:36;;;;;;;33.63;11.53;;;;;;;9.49;83.52;99699.41;6157530;23;20588;-89
2023/03/01 07:55:02;;;;;;;37.93;14.07;;;;;;;9.48;83.15;99689.88;6157492;23;20612;-90
2023/03/01 07:57:31;;;;;;;58.33;14.93;;;;;;;9.44;83.20;99694.38;6157361;23;20221;-91
2023/03/01 07:59:56;;;;;;;58.97;15.77;;;;;;;9.39;83.07;99695.47;6157922;23;20159;-89
2023/03/01 08:02:22;;;;;;;51.77;16.30;;;;;;;9.48;83.54;99692.50;6131569;23;20155;-90
2023/03/01 08:04:47;;;;;;;40.90;13.17;;;;;;;9.57;83.42;99698.22;6131290;23;20185;-89
2023/03/01 08:07:13;;;;;;;42.30;12.37;;;;;;;9.29;83.97;99697.59;6131247;23;20157;-90
2023/03/01 08:09:38;;;;;;;39.43;11.23;;;;;;;9.52;83.94;99694.06;6131272;23;20162;-89
2023/03/01 08:12:05;;;;;;;38.73;10.27;;;;;;;9.62;82.87;99696.25;6157214;23;20161;-90
2023/03/01 08:14:31;;;;;;;45.50;10.13;;;;;;;9.59;82.87;99695.56;6131331;23;20210;-90
2023/03/01 08:16:57;;;;;;;39.07;11.53;;;;;;;9.54;83.33;99694.88;6131456;23;20152;-90
2023/03/01 08:19:22;;;;;;;27.13;9.07;;;;;;;9.46;83.22;99691.72;6131306;23;20170;-90
2023/03/01 08:21:48;;;;;;;22.57;8.40;;;;;;;9.54;83.55;99687.03;6157935;23;20151;-90
2023/03/01 08:24:14;;;;;;;19.83;6.27;;;;;;;9.40;84.12;99692.81;6131407;23;20158;-90
2023/03/01 08:26:39;;;;;;;16.90;6.03;;;;;;;9.22;83.84;99696.13;6157073;23;20221;-89
2023/03/01 08:29:05;;;;;;;21.87;6.40;;;;;;;9.49;83.57;99694.19;6157396;23;20156;-90
2023/03/01 08:31:35;;;;;;;22.50;7.13;;;;;;;9.35;84.36;99697.38;6131456;23;20214;-90
2023/03/01 08:34:02;;;;;;;17.93;7.30;;;;;;;9.58;83.56;99699.06;6157065;23;20131;-90
2023/03/01 08:36:31;;;;;;;28.03;8.10;;;;;;;9.48;83.39;99697.72;6131072;23;20271;-89
2023/03/01 08:38:57;;;;;;;34.40;10.20;;;;;;;9.55;83.45;99693.94;6130812;23;20173;-90
2023/03/01 08:41:23;;;;;;;24.10;10.03;;;;;;;9.62;83.42;99687.56;6156744;23;20148;-90
2023/03/01 08:43:48;;;;;;;17.10;6.60;;;;;;;9.35;83.88;99688.66;6130892;23;20167;-90
2023/03/01 08:46:14;;;;;;;37.73;10.10;;;;;;;9.35;84.30;99691.28;6156441;23;20278;-89
2023/03/01 08:48:42;;;;;;;26.27;8.80;;;;;;;9.50;83.17;99693.28;6156776;23;20186;-90
2023/03/01 08:51:15;;;;;;;26.67;8.73;;;;;;;9.52;83.22;99691.44;6157026;23;20166;-89
2023/03/01 08:53:44;;;;;;;23.83;8.27;;;;;;;9.64;82.80;99693.59;6131234;23;20162;-90
2023/03/01 08:56:10;;;;;;;34.83;9.33;;;;;;;9.62;83.20;99680.56;6157034;23;20158;-90
2023/03/01 08:58:36;;;;;;;62.57;17.37;;;;;;;9.71;82.87;99684.59;6130941;23;20480;-89
2023/03/01 09:01:07;;;;;;;46.50;12.07;;;;;;;9.77;82.69;99681.72;6156655;23;20160;-89
2023/03/01 09:03:33;;;;;;;41.57;9.53;;;;;;;9.65;82.40;99677.81;6156687;23;20135;-90
2023/03/01 09:06:03;;;;;;;22.47;8.00;;;;;;;9.72;82.99;99688.91;6130826;23;20183;-89
2023/03/01 09:08:29;;;;;;;37.87;11.97;;;;;;;9.82;82.45;99687.63;6157081;23;20155;-89
2023/03/01 09:10:57;;;;;;;81.63;18.47;;;;;;;9.76;82.70;99677.38;6156646;23;20161;-90
2023/03/01 09:13:27;;;;;;;72.77;19.03;;;;;;;9.93;82.09;99680.19;6156958;23;20200;-90
2023/03/01 09:15:52;;;;;;;48.30;14.07;;;;;;;10.09;82.08;99689.09;6156416;23;20147;-90
2023/03/01 09:18:17;;;;;;;52.73;14.70;;;;;;;10.06;81.08;99688.38;6130799;23;20489;-90
2023/03/01 09:20:43;;;;;;;70.87;16.40;;;;;;;10.12;81.13;99689.00;6156374;23;20162;-90
2023/03/01 09:23:08;;;;;;;63.57;19.57;;;;;;;9.99;81.31;99689.53;6130683;23;20508;-90
2023/03/01 09:25:34;;;;;;;62.10;18.73;;;;;;;10.01;81.24;99692.97;6156374;23;20179;-90
2023/03/01 09:28:00;;;;;;;61.47;17.20;;;;;;;10.03;81.32;99701.59;6130618;23;20182;-90
2023/03/01 09:30:25;;;;;;;58.43;16.90;;;;;;;10.13;80.69;99698.56;6156294;23;20220;-92
2023/03/01 09:32:52;;;;;;;41.07;15.33;;;;;;;9.62;83.36;99701.50;6130980;23;20164;-90
2023/03/01 09:35:19;;;;;;;30.87;13.97;;;;;;;9.86;82.67;99689.19;6130476;23;20509;-91
2023/03/01 09:37:45;;;;;;;26.37;10.60;;;;;;;9.70;82.35;99703.81;6130396;23;20158;-90
2023/03/01 09:40:17;;;;;;;18.40;8.97;;;;;;;9.81;82.04;99701.63;6156214;23;20154;-91
2023/03/01 09:42:48;;;;;;;20.33;9.67;;;;;;;9.75;81.88;99699.25;6130373;23;20572;-91
2023/03/01 09:45:33;;;;;;;22.33;9.90;;;;;;;9.72;81.97;99702.00;6155958;23;20194;-90
2023/03/01 09:48:00;;;;;;;29.40;10.17;;;;;;;9.78;81.69;99699.13;6156855;23;20154;-90
2023/03/01 09:50:27;;;;;;;30.57;13.00;;;;;;;9.85;80.92;99690.13;6156471;23;20212;-90
2023/03/01 09:53:19;;;;;;;38.17;13.57;;;;;;;9.87;80.60;99694.38;6156022;23;20567;-90
2023/03/01 09:55:58;;;;;;;31.40;13.97;;;;;;;9.87;80.24;99696.16;6156514;23;20145;-90
2023/03/01 09:58:34;;;;;;;53.70;17.13;;;;;;;9.78;80.80;99692.13;6156397;23;20205;-90
2023/03/01 10:01:15;;;;;;;30.67;13.07;;;;;;;9.73;80.82;99687.97;6130319;23;20159;-90
2023/03/01 10:04:10;;;;;;;19.87;8.87;;;;;;;9.62;81.69;99690.16;6156023;23;20169;-90
2023/03/01 10:06:36;;;;;;;22.67;10.17;;;;;;;9.68;81.09;99684.69;6156363;23;20173;-90
2023/03/01 10:09:13;;;;;;;28.57;11.37;;;;;;;9.60;81.64;99681.53;6130138;23;20489;-90
2023/03/01 10:11:44;;;;;;;47.93;17.33;;;;;;;9.55;81.48;99678.25;6156599;23;20213;-90
2023/03/01 10:14:21;;;;;;;50.53;18.23;;;;;;;9.61;81.88;99672.78;6156547;23;20144;-90
2023/03/01 10:17:02;;;;;;;39.77;15.43;;;;;;;9.69;82.00;99675.94;6130257;23;20150;-90
2023/03/01 10:19:55;;;;;;;33.17;13.83;;;;;;;9.70;80.96;99669.78;6156268;23;20132;-90
2023/03/01 10:22:22;;;;;;;30.53;13.57;;;;;;;9.51;82.38;99676.69;6130178;23;20150;-90
2023/03/01 10:24:50;;;;;;;34.07;13.67;;;;;;;9.51;82.15;99667.03;6155695;23;20171;-90
2023/03/01 10:27:26;;;;;;;39.27;14.90;;;;;;;9.65;81.91;99663.88;6130096;23;20163;-90
2023/03/01 10:30:13;;;;;;;34.50;14.27;;;;;;;9.76;81.45;99674.78;6156081;23;20146;-91
2023/03/01 10:32:39;;;;;;;36.10;15.90;;;;;;;9.91;81.64;99671.53;6155753;23;20193;-90
2023/03/01 10:35:29;;;;;;;44.30;16.07;;;;;;;9.82;81.91;99671.91;6156283;23;20223;-91
2023/03/01 10:38:13;;;;;;;31.57;13.97;;;;;;;9.73;81.66;99672.28;6156593;23;20173;-90
2023/03/01 10:41:05;;;;;;;38.13;15.30;;;;;;;9.77;81.29;99660.78;6156170;23;20161;-91
2023/03/01 10:43:47;;;;;;;33.63;13.03;;;;;;;9.65;81.97;99669.97;6156888;23;20142;-91
2023/03/01 10:46:33;;;;;;;33.50;14.70;;;;;;;9.82;81.79;99674.53;6156456;23;20185;-90
2023/03/01 10:49:21;;;;;;;30.93;13.63;;;;;;;9.81;81.32;99671.06;6155737;23;20146;-90
2023/03/01 10:51:50;;;;;;;41.60;17.97;;;;;;;9.76;81.26;99661.69;6155658;23;20199;-90
2023/03/01 10:54:18;;;;;;;46.47;18.67;;;;;;;9.86;81.20;99661.25;6156345;23;20166;-90
2023/03/01 10:56:57;;;;;;;26.30;13.80;;;;;;;9.94;81.56;99663.53;6155587;23;20150;-91
2023/03/01 10:59:36;;;;;;;27.70;11.33;;;;;;;9.92;81.44;99657.53;6129982;23;20150;-91
2023/03/01 11:02:20;;;;;;;27.43;10.50;;;;;;;9.92;80.99;99662.75;6156314;23;20180;-90
2023/03/01 11:05:23;;;;;;;;;;;;;;;;;;;;;
2023/03/01 11:07:53;;;;;;;22.80;9.37;;;;;;;9.73;81.62;99652.19;6156775;23;20221;-91
2023/03/01 11:10:25;;;;;;;28.23;10.53;;;;;;;9.82;81.63;99638.75;6156062;23;20171;-90
2023/03/01 11:12:53;;;;;;;27.57;10.67;;;;;;;9.82;81.76;99635.25;6156232;23;20152;-90
2023/03/01 11:15:27;;;;;;;27.00;11.53;;;;;;;10.00;81.16;99634.50;6155547;23;20599;-90
2023/03/01 11:17:55;;;;;;;29.60;13.27;;;;;;;9.80;80.59;99637.09;6156045;23;20209;-91
2023/03/01 11:20:30;;;;;;;27.60;13.57;;;;;;;9.90;80.67;99634.00;6130263;23;20157;-91
2023/03/01 11:23:05;;;;;;;37.53;15.30;;;;;;;9.78;81.84;99620.59;6155943;23;20139;-90
2023/03/01 11:25:36;;;;;;;32.77;16.17;;;;;;;9.88;81.49;99630.59;6155768;23;20183;-90
2023/03/01 11:28:05;;;;;;;38.73;14.87;;;;;;;9.93;81.66;99622.59;6155738;23;20139;-91
2023/03/01 11:30:55;;;;;;;48.17;18.70;;;;;;;9.83;81.57;99624.72;6156234;23;20154;-90
2023/03/01 11:33:43;;;;;;;49.80;18.43;;;;;;;10.03;81.03;99612.56;6155891;23;20143;-90
2023/03/01 11:36:16;;;;;;;48.50;17.83;;;;;;;10.01;81.08;99614.41;6129732;23;20162;-90
2023/03/01 11:38:58;;;;;;;;;;;;;;;;;;;;;
2023/03/01 11:41:30;;;;;;;50.33;16.43;;;;;;;10.22;80.43;99605.66;6156500;23;20205;-90
2023/03/01 11:44:01;;;;;;;42.10;15.03;;;;;;;10.03;80.13;99608.19;6129917;23;20230;-90
2023/03/01 11:46:32;;;;;;;40.07;14.53;;;;;;;10.08;80.64;99595.72;6155266;23;20209;-90